^^
Grace C. Lehan Memorial Weather Station Historical Data
Daily Summary for February 8, 2022 Units:  Both    English   Metric
Daily Weekly Monthly Yearly
  High: Low: Average:
Temperature: 44.8 °F /  7.1 °C 33.5 °F /  0.8 °C 37 °F /  2.8 °C
Dew Point: 40 °F /  4.4 °C 22.7 °F /  -5.2 °C 32.1 °F /  0.1 °C
Humidity: 97% 64% 83%
Wind Speed: 9.3mph /  15km/h - 2.4mph /  3.9km/h
Wind Gust: 23mph /  37km/h - -
Wind- - WNW
Pressure: 29.99 in /  1015.5 hPa 29.79 in /  1008.7 hPa -
Precipitation: 0.16 in /  4.06 mm    
 
 
Tabular Data for February 8, 2022
Time Temperature Dew Point Pressure Wind Wind Speed Wind Gust Humidity Rainfall Rate (Hourly) solar
00:04 35.7 °F /  2.1 °C 34.7 °F /  1.5 °C 29.99in /  1015.5hPa NNE 2mph /  3.2km/h 5mph /  8km/h 96% 0.03in /  0.76mm 0 W/m2
00:09 35.7 °F /  2.1 °C 34.7 °F /  1.5 °C 29.98in /  1015.1hPa North 1mph /  1.6km/h 5mph /  8km/h 96% 0.03in /  0.76mm 0 W/m2
00:14 35.7 °F /  2.1 °C 34.7 °F /  1.5 °C 29.98in /  1015.1hPa NNW 1.5mph /  2.4km/h 5mph /  8km/h 96% 0.03in /  0.76mm 0 W/m2
00:19 35.7 °F /  2.1 °C 34.7 °F /  1.5 °C 29.98in /  1015.1hPa NNW 2.7mph /  4.3km/h 6mph /  9.7km/h 96% 0.03in /  0.76mm 0 W/m2
00:24 35.7 °F /  2.1 °C 34.7 °F /  1.5 °C 29.97in /  1014.8hPa NNE 1.3mph /  2.1km/h 6mph /  9.7km/h 96% 0.04in /  1.02mm 0 W/m2
00:29 35.7 °F /  2.1 °C 34.7 °F /  1.5 °C 29.97in /  1014.8hPa NNE 0.5mph /  0.8km/h 6mph /  9.7km/h 96% 0.04in /  1.02mm 0 W/m2
00:34 35.7 °F /  2.1 °C 34.7 °F /  1.5 °C 29.97in /  1014.8hPa North 1.4mph /  2.3km/h 6mph /  9.7km/h 96% 0.04in /  1.02mm 0 W/m2
00:39 35.7 °F /  2.1 °C 34.7 °F /  1.5 °C 29.97in /  1014.8hPa NNW 1.7mph /  2.7km/h 6mph /  9.7km/h 96% 0.03in /  0.76mm 0 W/m2
00:44 35.7 °F /  2.1 °C 34.7 °F /  1.5 °C 29.96in /  1014.4hPa NNW 2.6mph /  4.2km/h 6mph /  9.7km/h 96% 0.04in /  1.02mm 0 W/m2
00:49 35.7 °F /  2.1 °C 34.7 °F /  1.5 °C 29.95in /  1014.1hPa NNW 2mph /  3.2km/h 6mph /  9.7km/h 96% 0.04in /  1.02mm 0 W/m2
00:54 35.7 °F /  2.1 °C 34.7 °F /  1.5 °C 29.95in /  1014.1hPa NNW 1.2mph /  1.9km/h 6mph /  9.7km/h 96% 0.05in /  1.27mm 0 W/m2
00:59 35.7 °F /  2.1 °C 34.7 °F /  1.5 °C 29.95in /  1014.1hPa NNW 2.9mph /  4.7km/h 7mph /  11.3km/h 96% 0.05in /  1.27mm 0 W/m2
01:04 35.7 °F /  2.1 °C 34.7 °F /  1.5 °C 29.94in /  1013.8hPa NNW 2.1mph /  3.4km/h 7mph /  11.3km/h 96% 0.06in /  1.52mm 0 W/m2
01:09 35.7 °F /  2.1 °C 34.7 °F /  1.5 °C 29.94in /  1013.8hPa NNW 2.3mph /  3.7km/h 6mph /  9.7km/h 96% 0.05in /  1.27mm 0 W/m2
01:14 35.7 °F /  2.1 °C 34.7 °F /  1.5 °C 29.94in /  1013.8hPa North 1.3mph /  2.1km/h 6mph /  9.7km/h 96% 0.05in /  1.27mm 0 W/m2
01:19 35.7 °F /  2.1 °C 34.7 °F /  1.5 °C 29.94in /  1013.8hPa North 2.9mph /  4.7km/h 6mph /  9.7km/h 96% 0.06in /  1.52mm 0 W/m2
01:24 35.7 °F /  2.1 °C 34.7 °F /  1.5 °C 29.93in /  1013.4hPa NNW 3.2mph /  5.1km/h 8mph /  12.9km/h 96% 0.06in /  1.52mm 0 W/m2
01:29 35.7 °F /  2.1 °C 34.7 °F /  1.5 °C 29.93in /  1013.4hPa NNW 2.2mph /  3.5km/h 8mph /  12.9km/h 96% 0.06in /  1.52mm 0 W/m2
01:34 35.8 °F /  2.1 °C 34.7 °F /  1.5 °C 29.93in /  1013.4hPa NNW 2.1mph /  3.4km/h 8mph /  12.9km/h 96% 0.06in /  1.52mm 0 W/m2
01:39 35.8 °F /  2.1 °C 34.8 °F /  1.6 °C 29.94in /  1013.8hPa NNW 3.1mph /  5km/h 7mph /  11.3km/h 96% 0.06in /  1.52mm 0 W/m2
01:44 35.8 °F /  2.1 °C 34.8 °F /  1.6 °C 29.94in /  1013.8hPa NNW 3.1mph /  5km/h 7mph /  11.3km/h 96% 0.06in /  1.52mm 0 W/m2
01:49 35.8 °F /  2.1 °C 34.8 °F /  1.6 °C 29.93in /  1013.4hPa NNW 2.7mph /  4.3km/h 7mph /  11.3km/h 96% 0.06in /  1.52mm 0 W/m2
01:54 35.8 °F /  2.1 °C 34.8 °F /  1.6 °C 29.93in /  1013.4hPa NNW 0.7mph /  1.1km/h 7mph /  11.3km/h 96% 0.07in /  1.78mm 0 W/m2
01:59 35.8 °F /  2.1 °C 34.8 °F /  1.6 °C 29.93in /  1013.4hPa NNW 2.6mph /  4.2km/h 7mph /  11.3km/h 96% 0.07in /  1.78mm 0 W/m2
02:04 35.8 °F /  2.1 °C 34.8 °F /  1.6 °C 29.91in /  1012.8hPa NNW 1.8mph /  2.9km/h 7mph /  11.3km/h 96% 0.07in /  1.78mm 0 W/m2
02:09 35.8 °F /  2.1 °C 34.8 °F /  1.6 °C 29.91in /  1012.8hPa NNW 1.4mph /  2.3km/h 6mph /  9.7km/h 96% 0.05in /  1.27mm 0 W/m2
02:14 35.8 °F /  2.1 °C 34.8 °F /  1.6 °C 29.91in /  1012.8hPa NNW 1.3mph /  2.1km/h 6mph /  9.7km/h 96% 0.05in /  1.27mm 0 W/m2
02:19 35.8 °F /  2.1 °C 34.8 °F /  1.6 °C 29.91in /  1012.8hPa NNW 1.2mph /  1.9km/h 6mph /  9.7km/h 96% 0.05in /  1.27mm 0 W/m2
02:24 35.8 °F /  2.1 °C 34.8 °F /  1.6 °C 29.91in /  1012.8hPa NNW 2.6mph /  4.2km/h 6mph /  9.7km/h 96% 0.06in /  1.52mm 0 W/m2
02:29 35.8 °F /  2.1 °C 34.8 °F /  1.6 °C 29.91in /  1012.8hPa NNW 2.9mph /  4.7km/h 6mph /  9.7km/h 96% 0.06in /  1.52mm 0 W/m2
02:34 35.8 °F /  2.1 °C 34.8 °F /  1.6 °C 29.91in /  1012.8hPa NNW 2.1mph /  3.4km/h 7mph /  11.3km/h 96% 0.06in /  1.52mm 0 W/m2
02:39 35.8 °F /  2.1 °C 34.8 °F /  1.6 °C 29.91in /  1012.8hPa NNW 2mph /  3.2km/h 7mph /  11.3km/h 96% 0.06in /  1.52mm 0 W/m2
02:44 35.9 °F /  2.2 °C 34.8 °F /  1.6 °C 29.90in /  1012.4hPa NNW 2.2mph /  3.5km/h 8mph /  12.9km/h 96% 0.07in /  1.78mm 0 W/m2
02:49 35.9 °F /  2.2 °C 34.9 °F /  1.6 °C 29.89in /  1012.1hPa NNW 0.9mph /  1.4km/h 8mph /  12.9km/h 96% 0.07in /  1.78mm 0 W/m2
02:54 35.9 °F /  2.2 °C 34.8 °F /  1.6 °C 29.89in /  1012.1hPa NNW 0.7mph /  1.1km/h 8mph /  12.9km/h 96% 0.08in /  2.03mm 0 W/m2
02:59 35.9 °F /  2.2 °C 34.8 °F /  1.6 °C 29.89in /  1012.1hPa NNW 1.5mph /  2.4km/h 8mph /  12.9km/h 96% 0.08in /  2.03mm 0 W/m2
03:04 35.9 °F /  2.2 °C 34.9 °F /  1.6 °C 29.88in /  1011.7hPa NNW 2.8mph /  4.5km/h 8mph /  12.9km/h 96% 0.08in /  2.03mm 0 W/m2
03:09 35.9 °F /  2.2 °C 34.9 °F /  1.6 °C 29.88in /  1011.7hPa North 1.7mph /  2.7km/h 9mph /  14.5km/h 96% 0.07in /  1.78mm 0 W/m2
03:14 35.9 °F /  2.2 °C 34.9 °F /  1.6 °C 29.88in /  1011.7hPa North 1.5mph /  2.4km/h 9mph /  14.5km/h 96% 0.07in /  1.78mm 0 W/m2
03:19 35.9 °F /  2.2 °C 34.9 °F /  1.6 °C 29.88in /  1011.7hPa North 0.7mph /  1.1km/h 9mph /  14.5km/h 96% 0.07in /  1.78mm 0 W/m2
03:24 35.9 °F /  2.2 °C 34.9 °F /  1.6 °C 29.87in /  1011.4hPa North 1.2mph /  1.9km/h 9mph /  14.5km/h 96% 0.07in /  1.78mm 0 W/m2
03:29 35.9 °F /  2.2 °C 34.9 °F /  1.6 °C 29.87in /  1011.4hPa North 0.6mph /  1km/h 9mph /  14.5km/h 96% 0.07in /  1.78mm 0 W/m2
03:34 35.9 °F /  2.2 °C 34.9 °F /  1.6 °C 29.86in /  1011.1hPa Calm   9mph /  14.5km/h 96% 0.07in /  1.78mm 0 W/m2
03:39 35.9 °F /  2.2 °C 34.9 °F /  1.6 °C 29.86in /  1011.1hPa NNW 0.8mph /  1.3km/h 4mph /  6.4km/h 96% 0.05in /  1.27mm 0 W/m2
03:44 35.9 °F /  2.2 °C 34.9 °F /  1.6 °C 29.86in /  1011.1hPa NNW 0.6mph /  1km/h 7mph /  11.3km/h 96% 0.05in /  1.27mm 0 W/m2
03:49 35.9 °F /  2.2 °C 34.9 °F /  1.6 °C 29.86in /  1011.1hPa North 2.6mph /  4.2km/h 7mph /  11.3km/h 96% 0.05in /  1.27mm 0 W/m2
03:54 35.9 °F /  2.2 °C 34.9 °F /  1.6 °C 29.86in /  1011.1hPa NNW 2.7mph /  4.3km/h 7mph /  11.3km/h 96% 0.05in /  1.27mm 0 W/m2
03:59 35.9 °F /  2.2 °C 34.9 °F /  1.6 °C 29.85in /  1010.7hPa NNW 3.2mph /  5.1km/h 7mph /  11.3km/h 96% 0.05in /  1.27mm 0 W/m2
04:00 35.9 °F /  2.2 °C 34.9 °F /  1.6 °C 29.84in /  1010.4hPa NNW 3mph /  4.8km/h 7mph /  11.3km/h 96% 0.05in /  1.27mm 0 W/m2
04:09 35.9 °F /  2.2 °C 34.9 °F /  1.6 °C 29.84in /  1010.4hPa Calm     96% 0.01in /  0.25mm 0 W/m2
04:14 35.9 °F /  2.2 °C 34.9 °F /  1.6 °C 29.84in /  1010.4hPa NNW 1mph /  1.6km/h 3mph /  4.8km/h 96% 0.01in /  0.25mm 0 W/m2
04:19 35.9 °F /  2.2 °C 34.9 °F /  1.6 °C 29.84in /  1010.4hPa NNW 3.2mph /  5.1km/h 8mph /  12.9km/h 96% 0.01in /  0.25mm 0 W/m2
04:24 35.9 °F /  2.2 °C 34.9 °F /  1.6 °C 29.85in /  1010.7hPa NW 1.6mph /  2.6km/h 8mph /  12.9km/h 96% 0.01in /  0.25mm 0 W/m2
04:29 35.9 °F /  2.2 °C 34.9 °F /  1.6 °C 29.85in /  1010.7hPa Calm   8mph /  12.9km/h 96% 0.01in /  0.25mm 0 W/m2
04:34 35.9 °F /  2.2 °C 34.9 °F /  1.6 °C 29.84in /  1010.4hPa NW 1.8mph /  2.9km/h 8mph /  12.9km/h 96% 0.01in /  0.25mm 0 W/m2
04:39 35.9 °F /  2.2 °C 34.9 °F /  1.6 °C 29.84in /  1010.4hPa NW 1.3mph /  2.1km/h 5mph /  8km/h 96% 0.00in /  0mm 0 W/m2
04:44 36 °F /  2.2 °C 35 °F /  1.7 °C 29.85in /  1010.7hPa NW 1.6mph /  2.6km/h 5mph /  8km/h 96% 0.00in /  0mm 0 W/m2
04:49 36 °F /  2.2 °C 35 °F /  1.7 °C 29.85in /  1010.7hPa NW 0.3mph /  0.5km/h 5mph /  8km/h 96% 0.00in /  0mm 0 W/m2
04:54 35.9 °F /  2.2 °C 34.9 °F /  1.6 °C 29.85in /  1010.7hPa NW 1mph /  1.6km/h 5mph /  8km/h 96% 0.00in /  0mm 0 W/m2
04:59 35.9 °F /  2.2 °C 34.9 °F /  1.6 °C 29.84in /  1010.4hPa NW 1.5mph /  2.4km/h 6mph /  9.7km/h 96% 0.00in /  0mm 0 W/m2
05:04 35.9 °F /  2.2 °C 34.9 °F /  1.6 °C 29.84in /  1010.4hPa NW 1.6mph /  2.6km/h 6mph /  9.7km/h 96% 0.00in /  0mm 0 W/m2
05:09 35.9 °F /  2.2 °C 34.9 °F /  1.6 °C 29.85in /  1010.7hPa NW 1.7mph /  2.7km/h 5mph /  8km/h 96% 0.00in /  0mm 0 W/m2
05:14 35.9 °F /  2.2 °C 34.9 °F /  1.6 °C 29.85in /  1010.7hPa NW 0.3mph /  0.5km/h 5mph /  8km/h 96% 0.00in /  0mm 0 W/m2
05:19 35.9 °F /  2.2 °C 34.9 °F /  1.6 °C 29.84in /  1010.4hPa NW 0.7mph /  1.1km/h 5mph /  8km/h 96% 0.00in /  0mm 0 W/m2
05:24 36 °F /  2.2 °C 35 °F /  1.7 °C 29.84in /  1010.4hPa NW 0.5mph /  0.8km/h 5mph /  8km/h 96% 0.00in /  0mm 0 W/m2
05:29 36 °F /  2.2 °C 35 °F /  1.7 °C 29.84in /  1010.4hPa NW 0.8mph /  1.3km/h 5mph /  8km/h 96% 0.00in /  0mm 0 W/m2
05:34 36 °F /  2.2 °C 35 °F /  1.7 °C 29.84in /  1010.4hPa NW 2.5mph /  4km/h 5mph /  8km/h 96% 0.00in /  0mm 0 W/m2
05:39 36 °F /  2.2 °C 35 °F /  1.7 °C 29.84in /  1010.4hPa NW 0.7mph /  1.1km/h 5mph /  8km/h 96% 0.00in /  0mm 0 W/m2
05:44 36 °F /  2.2 °C 35 °F /  1.7 °C 29.84in /  1010.4hPa NW 2mph /  3.2km/h 6mph /  9.7km/h 96% 0.00in /  0mm 0 W/m2
05:49 36 °F /  2.2 °C 35 °F /  1.7 °C 29.84in /  1010.4hPa NW 2mph /  3.2km/h 6mph /  9.7km/h 96% 0.00in /  0mm 0 W/m2
05:54 36 °F /  2.2 °C 35 °F /  1.7 °C 29.84in /  1010.4hPa NW 2.1mph /  3.4km/h 6mph /  9.7km/h 96% 0.01in /  0.25mm 0 W/m2
05:59 36.1 °F /  2.3 °C 35 °F /  1.7 °C 29.84in /  1010.4hPa NW 2.6mph /  4.2km/h 6mph /  9.7km/h 96% 0.01in /  0.25mm 0 W/m2
06:04 36.1 °F /  2.3 °C 35.1 °F /  1.7 °C 29.84in /  1010.4hPa NW 1.1mph /  1.8km/h 7mph /  11.3km/h 96% 0.01in /  0.25mm 0 W/m2
06:09 36.1 °F /  2.3 °C 35.1 °F /  1.7 °C 29.84in /  1010.4hPa NW 1.3mph /  2.1km/h 7mph /  11.3km/h 96% 0.01in /  0.25mm 0 W/m2
06:14 36.1 °F /  2.3 °C 35.1 °F /  1.7 °C 29.85in /  1010.7hPa NW 2.1mph /  3.4km/h 7mph /  11.3km/h 96% 0.01in /  0.25mm 0 W/m2
06:19 36.1 °F /  2.3 °C 35.1 °F /  1.7 °C 29.85in /  1010.7hPa NW 1.3mph /  2.1km/h 7mph /  11.3km/h 96% 0.01in /  0.25mm 0 W/m2
06:24 36.1 °F /  2.3 °C 35.1 °F /  1.7 °C 29.85in /  1010.7hPa NW 1.6mph /  2.6km/h 7mph /  11.3km/h 96% 0.01in /  0.25mm 0 W/m2
06:29 36.2 °F /  2.3 °C 35.1 °F /  1.7 °C 29.84in /  1010.4hPa NW 0.5mph /  0.8km/h 7mph /  11.3km/h 96% 0.01in /  0.25mm 0 W/m2
06:34 36.2 °F /  2.3 °C 35.2 °F /  1.8 °C 29.84in /  1010.4hPa Calm   7mph /  11.3km/h 96% 0.01in /  0.25mm 0 W/m2
06:39 36.2 °F /  2.3 °C 35.2 °F /  1.8 °C 29.84in /  1010.4hPa Calm   1mph /  1.6km/h 96% 0.01in /  0.25mm 0 W/m2
06:44 36.2 °F /  2.3 °C 35.2 °F /  1.8 °C 29.84in /  1010.4hPa Calm   1mph /  1.6km/h 96% 0.01in /  0.25mm 0 W/m2
06:49 36.2 °F /  2.3 °C 35.2 °F /  1.8 °C 29.84in /  1010.4hPa Calm   1mph /  1.6km/h 96% 0.01in /  0.25mm 0 W/m2
06:54 36.2 °F /  2.3 °C 35.2 °F /  1.8 °C 29.84in /  1010.4hPa Calm   1mph /  1.6km/h 96% 0.01in /  0.25mm 0 W/m2
06:59 36.2 °F /  2.3 °C 35.2 °F /  1.8 °C 29.83in /  1010hPa Calm   1mph /  1.6km/h 96% 0.01in /  0.25mm 0 W/m2
07:04 36.2 °F /  2.3 °C 35.2 °F /  1.8 °C 29.84in /  1010.4hPa Calm   1mph /  1.6km/h 96% 0.01in /  0.25mm 0 W/m2
07:09 36.2 °F /  2.3 °C 35.2 °F /  1.8 °C 29.84in /  1010.4hPa Calm     96% 0.00in /  0mm 5 W/m2
07:14 36.2 °F /  2.3 °C 35.2 °F /  1.8 °C 29.84in /  1010.4hPa NW 0.1mph /  0.2km/h 3mph /  4.8km/h 96% 0.00in /  0mm 9 W/m2
07:19 36.2 °F /  2.3 °C 35.2 °F /  1.8 °C 29.84in /  1010.4hPa NW 0.1mph /  0.2km/h 3mph /  4.8km/h 96% 0.00in /  0mm 11 W/m2
07:24 36.2 °F /  2.3 °C 35.2 °F /  1.8 °C 29.84in /  1010.4hPa Calm   3mph /  4.8km/h 96% 0.00in /  0mm 11 W/m2
07:29 36.2 °F /  2.3 °C 35.2 °F /  1.8 °C 29.84in /  1010.4hPa Calm   3mph /  4.8km/h 96% 0.00in /  0mm 14 W/m2
07:34 36.2 °F /  2.3 °C 35.2 °F /  1.8 °C 29.85in /  1010.7hPa Calm   3mph /  4.8km/h 96% 0.00in /  0mm 19 W/m2
07:39 36.3 °F /  2.4 °C 35.3 °F /  1.8 °C 29.85in /  1010.7hPa Calm     96% 0.00in /  0mm 26 W/m2
07:44 36.4 °F /  2.4 °C 35.3 °F /  1.8 °C 29.85in /  1010.7hPa Calm     96% 0.00in /  0mm 35 W/m2
07:49 36.4 °F /  2.4 °C 35.4 °F /  1.9 °C 29.85in /  1010.7hPa Calm     96% 0.00in /  0mm 42 W/m2
07:54 36.5 °F /  2.5 °C 35.5 °F /  1.9 °C 29.84in /  1010.4hPa Calm     96% 0.00in /  0mm 51 W/m2
07:59 36.6 °F /  2.6 °C 35.6 °F /  2 °C 29.85in /  1010.7hPa Calm     96% 0.00in /  0mm 51 W/m2
08:09 36.9 °F /  2.7 °C 35.8 °F /  2.1 °C 29.85in /  1010.7hPa Calm     96% 0.00in /  0mm 54 W/m2
08:14 37 °F /  2.8 °C 35.9 °F /  2.2 °C 29.85in /  1010.7hPa Calm     96% 0.00in /  0mm 54 W/m2
08:19 37.1 °F /  2.8 °C 36.1 °F /  2.3 °C 29.85in /  1010.7hPa Calm     96% 0.00in /  0mm 54 W/m2
08:24 37.1 °F /  2.8 °C 36.1 °F /  2.3 °C 29.86in /  1011.1hPa Calm     96% 0.00in /  0mm 51 W/m2
08:29 37.2 °F /  2.9 °C 36.2 °F /  2.3 °C 29.86in /  1011.1hPa Calm     96% 0.00in /  0mm 58 W/m2
08:34 37.3 °F /  2.9 °C 36.3 °F /  2.4 °C 29.86in /  1011.1hPa Calm     96% 0.00in /  0mm 120 W/m2
08:39 37.4 °F /  3 °C 36.4 °F /  2.4 °C 29.85in /  1010.7hPa Calm     96% 0.00in /  0mm 179 W/m2
08:44 37.8 °F /  3.2 °C 36.7 °F /  2.6 °C 29.84in /  1010.4hPa Calm     96% 0.00in /  0mm 199 W/m2
08:49 38.1 °F /  3.4 °C 37.1 °F /  2.8 °C 29.84in /  1010.4hPa Calm     96% 0.00in /  0mm 116 W/m2
08:54 38.4 °F /  3.6 °C 37.3 °F /  2.9 °C 29.84in /  1010.4hPa Calm     96% 0.00in /  0mm 197 W/m2
08:59 38.6 °F /  3.7 °C 37.6 °F /  3.1 °C 29.83in /  1010hPa Calm     96% 0.00in /  0mm 302 W/m2
09:04 39 °F /  3.9 °C 38 °F /  3.3 °C 29.84in /  1010.4hPa Calm     96% 0.00in /  0mm 302 W/m2
09:09 39.4 °F /  4.1 °C 38.6 °F /  3.7 °C 29.84in /  1010.4hPa Calm     97% 0.00in /  0mm 169 W/m2
11:29 42.9 °F /  6.1 °C 40 °F /  4.4 °C 29.83in /  1010hPa West 4mph /  6.4km/h 9mph /  14.5km/h 89.5% 0.00in /  0mm 302 W/m2
11:30 42.9 °F /  6.1 °C 39.9 °F /  4.4 °C 29.83in /  1010hPa Calm   9mph /  14.5km/h 89% 0.00in /  0mm 302 W/m2
12:09 43.8 °F /  6.6 °C 38 °F /  3.3 °C 29.81in /  1009.4hPa WNW 4.9mph /  7.9km/h 12mph /  19.3km/h 79.9% 0.00in /  0mm 299 W/m2
12:13 43.8 °F /  6.6 °C 37.6 °F /  3.1 °C 29.81in /  1009.4hPa NW 5mph /  8km/h 12mph /  19.3km/h 78.7% 0.00in /  0mm 162 W/m2
12:21 43.6 °F /  6.4 °C 36.6 °F /  2.6 °C 29.79in /  1008.7hPa WNW 4.3mph /  6.9km/h 12mph /  19.3km/h 76% 0.00in /  0mm 248 W/m2
12:34 44 °F /  6.7 °C 37.2 °F /  2.9 °C 29.80in /  1009hPa WNW 4.1mph /  6.6km/h 13mph /  20.9km/h 77% 0.00in /  0mm 406 W/m2
12:35 44 °F /  6.7 °C 36.9 °F /  2.7 °C 29.80in /  1009hPa WNW 4mph /  6.4km/h 13mph /  20.9km/h 76% 0.00in /  0mm 84 W/m2
12:54 44.5 °F /  6.9 °C 36.5 °F /  2.5 °C 29.80in /  1009hPa WNW 1.9mph /  3.1km/h 15mph /  24.1km/h 73.4% 0.00in /  0mm 394 W/m2
12:59 44.7 °F /  7.1 °C 36.3 °F /  2.4 °C 29.80in /  1009hPa WNW 6.8mph /  10.9km/h 15mph /  24.1km/h 72.3% 0.00in /  0mm 366 W/m2
13:04 44.8 °F /  7.1 °C 36.2 °F /  2.3 °C 29.80in /  1009hPa NW 3.9mph /  6.3km/h 15mph /  24.1km/h 71.5% 0.00in /  0mm 536 W/m2
13:09 44.8 °F /  7.1 °C 36.3 °F /  2.4 °C 29.81in /  1009.4hPa NW 5.5mph /  8.9km/h 14mph /  22.5km/h 72% 0.00in /  0mm 204 W/m2
13:14 44.6 °F /  7 °C 35.8 °F /  2.1 °C 29.81in /  1009.4hPa WNW 7.6mph /  12.2km/h 16mph /  25.7km/h 71% 0.00in /  0mm 265 W/m2
13:19 44.3 °F /  6.8 °C 35.3 °F /  1.8 °C 29.81in /  1009.4hPa NW 3.1mph /  5km/h 16mph /  25.7km/h 70.7% 0.00in /  0mm 281 W/m2
13:23 44.2 °F /  6.8 °C 35.4 °F /  1.9 °C 29.81in /  1009.4hPa WNW 6.1mph /  9.8km/h 16mph /  25.7km/h 71% 0.00in /  0mm 167 W/m2
13:39 43.4 °F /  6.3 °C 34.3 °F /  1.3 °C 29.81in /  1009.4hPa NW 5.7mph /  9.2km/h 17mph /  27.4km/h 70% 0.00in /  0mm 206 W/m2
13:44 43 °F /  6.1 °C 34.2 °F /  1.2 °C 29.81in /  1009.4hPa WNW 7.6mph /  12.2km/h 19mph /  30.6km/h 70.8% 0.00in /  0mm 364 W/m2
13:47 42.5 °F /  5.8 °C 33.9 °F /  1.1 °C 29.80in /  1009hPa NW 9.3mph /  15km/h 19mph /  30.6km/h 71.4% 0.00in /  0mm 364 W/m2
13:54 41.8 °F /  5.4 °C 33.4 °F /  0.8 °C 29.81in /  1009.4hPa WNW 9.1mph /  14.6km/h 23mph /  37km/h 72% 0.00in /  0mm 241 W/m2
13:59 41.5 °F /  5.3 °C 33.3 °F /  0.7 °C 29.81in /  1009.4hPa NW 6.2mph /  10km/h 23mph /  37km/h 72.5% 0.00in /  0mm 225 W/m2
14:04 41.3 °F /  5.2 °C 33.2 °F /  0.7 °C 29.81in /  1009.4hPa NW 6.8mph /  10.9km/h 23mph /  37km/h 72.6% 0.00in /  0mm 345 W/m2
14:09 41.3 °F /  5.2 °C 33 °F /  0.6 °C 29.82in /  1009.7hPa WNW 8.6mph /  13.8km/h 16mph /  25.7km/h 72.2% 0.00in /  0mm 367 W/m2
14:14 41.3 °F /  5.2 °C 33.2 °F /  0.7 °C 29.82in /  1009.7hPa NW 3.3mph /  5.3km/h 17mph /  27.4km/h 72.6% 0.00in /  0mm 243 W/m2
14:19 41.6 °F /  5.3 °C 33.1 °F /  0.6 °C 29.81in /  1009.4hPa NW 8.6mph /  13.8km/h 19mph /  30.6km/h 71.5% 0.00in /  0mm 181 W/m2
14:24 41.5 °F /  5.3 °C 32.8 °F /  0.4 °C 29.82in /  1009.7hPa WNW 7.9mph /  12.7km/h 19mph /  30.6km/h 71% 0.00in /  0mm 137 W/m2
14:29 41.4 °F /  5.2 °C 32.7 °F /  0.4 °C 29.82in /  1009.7hPa WNW 8.1mph /  13km/h 19mph /  30.6km/h 71% 0.00in /  0mm 185 W/m2
14:34 41.4 °F /  5.2 °C 32.6 °F /  0.3 °C 29.82in /  1009.7hPa NW 7.9mph /  12.7km/h 19mph /  30.6km/h 70.7% 0.00in /  0mm 213 W/m2
14:39 41.5 °F /  5.3 °C 32.6 °F /  0.3 °C 29.82in /  1009.7hPa NW 8.9mph /  14.3km/h 18mph /  29km/h 70.5% 0.00in /  0mm 267 W/m2
14:43 41.4 °F /  5.2 °C 32.4 °F /  0.2 °C 29.82in /  1009.7hPa WNW 8.7mph /  14km/h 18mph /  29km/h 70% 0.00in /  0mm 171 W/m2
14:49 41.3 °F /  5.2 °C 32.3 °F /  0.2 °C 29.82in /  1009.7hPa NW 8.6mph /  13.8km/h 18mph /  29km/h 70% 0.00in /  0mm 366 W/m2
14:54 41.3 °F /  5.2 °C 32.3 °F /  0.2 °C 29.82in /  1009.7hPa WNW 4.6mph /  7.4km/h 18mph /  29km/h 70.2% 0.00in /  0mm 162 W/m2
14:59 41.2 °F /  5.1 °C 32.2 °F /  0.1 °C 29.83in /  1010hPa WNW 8mph /  12.9km/h 18mph /  29km/h 70% 0.00in /  0mm 162 W/m2
15:04 40.9 °F /  4.9 °C 32 °F /  0 °C 29.83in /  1010hPa NW 6.4mph /  10.3km/h 18mph /  29km/h 70.2% 0.00in /  0mm 118 W/m2
15:09 40.5 °F /  4.7 °C 31.6 °F /  -0.2 °C 29.83in /  1010hPa WNW 6.2mph /  10km/h 14mph /  22.5km/h 70.2% 0.00in /  0mm 93 W/m2
15:14 40.1 °F /  4.5 °C 31.4 °F /  -0.3 °C 29.83in /  1010hPa WNW 7.8mph /  12.6km/h 15mph /  24.1km/h 70.8% 0.00in /  0mm 72 W/m2
15:19 39.8 °F /  4.3 °C 31.1 °F /  -0.5 °C 29.83in /  1010hPa WNW 7.5mph /  12.1km/h 16mph /  25.7km/h 70.8% 0.00in /  0mm 72 W/m2
15:24 39.6 °F /  4.2 °C 31 °F /  -0.6 °C 29.84in /  1010.4hPa WNW 4.2mph /  6.8km/h 16mph /  25.7km/h 71% 0.00in /  0mm 93 W/m2
15:29 39.5 °F /  4.2 °C 31 °F /  -0.6 °C 29.84in /  1010.4hPa WNW 5.4mph /  8.7km/h 16mph /  25.7km/h 71.3% 0.00in /  0mm 88 W/m2
15:34 39.4 °F /  4.1 °C 31 °F /  -0.6 °C 29.84in /  1010.4hPa WNW 4.3mph /  6.9km/h 16mph /  25.7km/h 71.5% 0.00in /  0mm 63 W/m2
15:39 39.3 °F /  4.1 °C 30.9 °F /  -0.6 °C 29.83in /  1010hPa WNW 5.6mph /  9km/h 13mph /  20.9km/h 71.5% 0.00in /  0mm 63 W/m2
15:44 39.1 °F /  3.9 °C 30.5 °F /  -0.8 °C 29.84in /  1010.4hPa WNW 6.9mph /  11.1km/h 14mph /  22.5km/h 71% 0.00in /  0mm 44 W/m2
15:49 39 °F /  3.9 °C 30.7 °F /  -0.7 °C 29.84in /  1010.4hPa WNW 5.1mph /  8.2km/h 14mph /  22.5km/h 71.8% 0.00in /  0mm 35 W/m2
15:54 38.9 °F /  3.8 °C 30.4 °F /  -0.9 °C 29.84in /  1010.4hPa WNW 7.9mph /  12.7km/h 17mph /  27.4km/h 71.3% 0.00in /  0mm 32 W/m2
15:59 38.8 °F /  3.8 °C 30.2 °F /  -1 °C 29.84in /  1010.4hPa WNW 8.5mph /  13.7km/h 17mph /  27.4km/h 71% 0.00in /  0mm 32 W/m2
16:09 38.7 °F /  3.7 °C 30.1 °F /  -1.1 °C 29.84in /  1010.4hPa NW 5.2mph /  8.4km/h 15mph /  24.1km/h 71% 0.00in /  0mm 32 W/m2
16:14 38.7 °F /  3.7 °C 30.2 °F /  -1 °C 29.84in /  1010.4hPa WNW 2.7mph /  4.3km/h 15mph /  24.1km/h 71.2% 0.00in /  0mm 35 W/m2
16:19 38.7 °F /  3.7 °C 30.5 °F /  -0.8 °C 29.84in /  1010.4hPa NW 2.4mph /  3.9km/h 15mph /  24.1km/h 72% 0.00in /  0mm 46 W/m2
16:24 38.7 °F /  3.7 °C 30.2 °F /  -1 °C 29.85in /  1010.7hPa NW 2.7mph /  4.3km/h 15mph /  24.1km/h 71.4% 0.00in /  0mm 28 W/m2
16:29 38.6 °F /  3.7 °C 30.1 °F /  -1.1 °C 29.85in /  1010.7hPa WNW 1mph /  1.6km/h 15mph /  24.1km/h 71.2% 0.00in /  0mm 30 W/m2
16:34 38.5 °F /  3.6 °C 30.3 °F /  -0.9 °C 29.85in /  1010.7hPa WNW 2.6mph /  4.2km/h 15mph /  24.1km/h 71.9% 0.00in /  0mm 32 W/m2
16:39 38.4 °F /  3.6 °C 30.2 °F /  -1 °C 29.85in /  1010.7hPa WNW 1.7mph /  2.7km/h 9mph /  14.5km/h 72% 0.00in /  0mm 25 W/m2
16:44 38.3 °F /  3.5 °C 30.1 °F /  -1.1 °C 29.86in /  1011.1hPa WNW 2.8mph /  4.5km/h 10mph /  16.1km/h 72% 0.00in /  0mm 16 W/m2
16:49 38.2 °F /  3.4 °C 30.3 °F /  -0.9 °C 29.86in /  1011.1hPa WNW 3.1mph /  5km/h 12mph /  19.3km/h 73% 0.00in /  0mm 16 W/m2
16:54 38 °F /  3.3 °C 30.2 °F /  -1 °C 29.86in /  1011.1hPa NW 4.3mph /  6.9km/h 14mph /  22.5km/h 73% 0.00in /  0mm 12 W/m2
16:59 38 °F /  3.3 °C 30.1 °F /  -1.1 °C 29.86in /  1011.1hPa NW 3.3mph /  5.3km/h 14mph /  22.5km/h 73% 0.00in /  0mm 5 W/m2
17:04 37.9 °F /  3.3 °C 30.1 °F /  -1.1 °C 29.87in /  1011.4hPa WNW 5.3mph /  8.5km/h 15mph /  24.1km/h 73% 0.00in /  0mm 0 W/m2
17:09 37.9 °F /  3.3 °C 30 °F /  -1.1 °C 29.87in /  1011.4hPa WNW 3.4mph /  5.5km/h 15mph /  24.1km/h 73% 0.00in /  0mm 0 W/m2
17:14 37.9 °F /  3.3 °C 30.1 °F /  -1.1 °C 29.87in /  1011.4hPa WNW 2.3mph /  3.7km/h 15mph /  24.1km/h 73.2% 0.00in /  0mm 0 W/m2
17:19 37.9 °F /  3.3 °C 30.1 °F /  -1.1 °C 29.87in /  1011.4hPa WNW 2.9mph /  4.7km/h 15mph /  24.1km/h 73.2% 0.00in /  0mm 0 W/m2
17:24 37.8 °F /  3.2 °C 30.1 °F /  -1.1 °C 29.87in /  1011.4hPa West 1.6mph /  2.6km/h 15mph /  24.1km/h 73.5% 0.00in /  0mm 0 W/m2
17:29 37.8 °F /  3.2 °C 30 °F /  -1.1 °C 29.87in /  1011.4hPa WNW 4.6mph /  7.4km/h 15mph /  24.1km/h 73.2% 0.00in /  0mm 0 W/m2
17:34 37.8 °F /  3.2 °C 30.1 °F /  -1.1 °C 29.87in /  1011.4hPa WNW 1.5mph /  2.4km/h 15mph /  24.1km/h 73.5% 0.00in /  0mm 0 W/m2
17:39 37.8 °F /  3.2 °C 30 °F /  -1.1 °C 29.87in /  1011.4hPa WNW 1.2mph /  1.9km/h 6mph /  9.7km/h 73.2% 0.00in /  0mm 0 W/m2
17:44 37.7 °F /  3.2 °C 30.1 °F /  -1.1 °C 29.87in /  1011.4hPa NW 1.2mph /  1.9km/h 8mph /  12.9km/h 73.8% 0.00in /  0mm 0 W/m2
17:49 37.7 °F /  3.2 °C 30 °F /  -1.1 °C 29.87in /  1011.4hPa WNW 4.9mph /  7.9km/h 11mph /  17.7km/h 73.6% 0.00in /  0mm 0 W/m2
17:54 37.6 °F /  3.1 °C 30 °F /  -1.1 °C 29.87in /  1011.4hPa WNW 3.2mph /  5.1km/h 12mph /  19.3km/h 73.7% 0.00in /  0mm 0 W/m2
17:59 37.5 °F /  3.1 °C 30 °F /  -1.1 °C 29.87in /  1011.4hPa WNW 2mph /  3.2km/h 12mph /  19.3km/h 74% 0.00in /  0mm 0 W/m2
18:04 37.4 °F /  3 °C 30.3 °F /  -0.9 °C 29.88in /  1011.7hPa WNW 0.5mph /  0.8km/h 12mph /  19.3km/h 75% 0.00in /  0mm 0 W/m2
18:09 37.3 °F /  2.9 °C 30.1 °F /  -1.1 °C 29.88in /  1011.7hPa WNW 1mph /  1.6km/h 5mph /  8km/h 75% 0.00in /  0mm 0 W/m2
18:14 37.2 °F /  2.9 °C 30.1 °F /  -1.1 °C 29.88in /  1011.7hPa WNW 0.5mph /  0.8km/h 5mph /  8km/h 75.3% 0.00in /  0mm 0 W/m2
18:19 37.1 °F /  2.8 °C 30.2 °F /  -1 °C 29.89in /  1012.1hPa WNW 0.9mph /  1.4km/h 6mph /  9.7km/h 76% 0.00in /  0mm 0 W/m2
18:24 37 °F /  2.8 °C 30.2 °F /  -1 °C 29.88in /  1011.7hPa WNW 1.3mph /  2.1km/h 6mph /  9.7km/h 76% 0.00in /  0mm 0 W/m2
18:29 37 °F /  2.8 °C 30.1 °F /  -1.1 °C 29.89in /  1012.1hPa WNW 0.4mph /  0.6km/h 6mph /  9.7km/h 76% 0.00in /  0mm 0 W/m2
18:34 36.9 °F /  2.7 °C 30.1 °F /  -1.1 °C 29.89in /  1012.1hPa WNW 0.1mph /  0.2km/h 6mph /  9.7km/h 76% 0.00in /  0mm 0 W/m2
18:39 36.9 °F /  2.7 °C 30 °F /  -1.1 °C 29.89in /  1012.1hPa Calm   2mph /  3.2km/h 76% 0.00in /  0mm 0 W/m2
18:44 36.8 °F /  2.7 °C 29.9 °F /  -1.2 °C 29.89in /  1012.1hPa WNW 0.2mph /  0.3km/h 2mph /  3.2km/h 76% 0.00in /  0mm 0 W/m2
18:49 36.6 °F /  2.6 °C 30.1 °F /  -1.1 °C 29.89in /  1012.1hPa WNW 0.1mph /  0.2km/h 2mph /  3.2km/h 77% 0.00in /  0mm 0 W/m2
18:54 36.5 °F /  2.5 °C 30 °F /  -1.1 °C 29.90in /  1012.4hPa Calm   2mph /  3.2km/h 77% 0.00in /  0mm 0 W/m2
18:59 36.3 °F /  2.4 °C 29.8 °F /  -1.2 °C 29.90in /  1012.4hPa West 0.2mph /  0.3km/h 3mph /  4.8km/h 77% 0.00in /  0mm 0 W/m2
19:04 36.2 °F /  2.3 °C 29.7 °F /  -1.3 °C 29.90in /  1012.4hPa West 0.1mph /  0.2km/h 3mph /  4.8km/h 77% 0.00in /  0mm 0 W/m2
19:09 36 °F /  2.2 °C 29.5 °F /  -1.4 °C 29.90in /  1012.4hPa West 0.7mph /  1.1km/h 4mph /  6.4km/h 77% 0.00in /  0mm 0 W/m2
19:14 35.8 °F /  2.1 °C 29.3 °F /  -1.5 °C 29.90in /  1012.4hPa West 0.3mph /  0.5km/h 4mph /  6.4km/h 77% 0.00in /  0mm 0 W/m2
19:19 35.6 °F /  2 °C 29.1 °F /  -1.6 °C 29.91in /  1012.8hPa West 0.5mph /  0.8km/h 4mph /  6.4km/h 77% 0.00in /  0mm 0 W/m2
19:24 35.5 °F /  1.9 °C 29 °F /  -1.7 °C 29.91in /  1012.8hPa West 0.1mph /  0.2km/h 4mph /  6.4km/h 77% 0.00in /  0mm 0 W/m2
19:29 35.3 °F /  1.8 °C 28.9 °F /  -1.7 °C 29.91in /  1012.8hPa WNW 0.6mph /  1km/h 4mph /  6.4km/h 77% 0.00in /  0mm 0 W/m2
19:34 35.2 °F /  1.8 °C 28.7 °F /  -1.8 °C 29.91in /  1012.8hPa WNW 0.1mph /  0.2km/h 4mph /  6.4km/h 77% 0.00in /  0mm 0 W/m2
19:39 35 °F /  1.7 °C 28.4 °F /  -2 °C 29.92in /  1013.1hPa WNW 0.1mph /  0.2km/h 2mph /  3.2km/h 76.7% 0.00in /  0mm 0 W/m2
19:44 34.8 °F /  1.6 °C 28.1 °F /  -2.2 °C 29.92in /  1013.1hPa Calm   2mph /  3.2km/h 76% 0.00in /  0mm 0 W/m2
19:49 34.7 °F /  1.5 °C 27.9 °F /  -2.3 °C 29.92in /  1013.1hPa WNW 0.2mph /  0.3km/h 2mph /  3.2km/h 76% 0.00in /  0mm 0 W/m2
19:54 34.6 °F /  1.4 °C 27.8 °F /  -2.3 °C 29.92in /  1013.1hPa WNW 0.1mph /  0.2km/h 2mph /  3.2km/h 76% 0.00in /  0mm 0 W/m2
19:59 34.5 °F /  1.4 °C 27.5 °F /  -2.5 °C 29.92in /  1013.1hPa West 0.4mph /  0.6km/h 2mph /  3.2km/h 75.3% 0.00in /  0mm 0 W/m2
20:09 34.4 °F /  1.3 °C 27 °F /  -2.8 °C 29.92in /  1013.1hPa West 0.6mph /  1km/h 3mph /  4.8km/h 74.2% 0.00in /  0mm 0 W/m2
20:14 34.4 °F /  1.3 °C 27 °F /  -2.8 °C 29.92in /  1013.1hPa West 1mph /  1.6km/h 6mph /  9.7km/h 74% 0.00in /  0mm 0 W/m2
20:19 34.4 °F /  1.3 °C 26.9 °F /  -2.8 °C 29.93in /  1013.4hPa West 0.4mph /  0.6km/h 6mph /  9.7km/h 73.6% 0.00in /  0mm 0 W/m2
20:24 34.3 °F /  1.3 °C 26.6 °F /  -3 °C 29.93in /  1013.4hPa West 0.5mph /  0.8km/h 6mph /  9.7km/h 73% 0.00in /  0mm 0 W/m2
20:29 34.3 °F /  1.3 °C 26.6 °F /  -3 °C 29.93in /  1013.4hPa West 1.7mph /  2.7km/h 10mph /  16.1km/h 73% 0.00in /  0mm 0 W/m2
20:34 34.3 °F /  1.3 °C 26.6 °F /  -3 °C 29.93in /  1013.4hPa West 0.2mph /  0.3km/h 10mph /  16.1km/h 73% 0.00in /  0mm 0 W/m2
20:39 34.2 °F /  1.2 °C 26.5 °F /  -3.1 °C 29.94in /  1013.8hPa West 0.8mph /  1.3km/h 6mph /  9.7km/h 73% 0.00in /  0mm 0 W/m2
20:44 34.2 °F /  1.2 °C 26.5 °F /  -3.1 °C 29.94in /  1013.8hPa WNW 1mph /  1.6km/h 7mph /  11.3km/h 73% 0.00in /  0mm 0 W/m2
20:49 34.2 °F /  1.2 °C 26.4 °F /  -3.1 °C 29.94in /  1013.8hPa WNW 0.4mph /  0.6km/h 7mph /  11.3km/h 73% 0.00in /  0mm 0 W/m2
20:54 34.1 °F /  1.2 °C 26.4 °F /  -3.1 °C 29.94in /  1013.8hPa WNW 0.5mph /  0.8km/h 7mph /  11.3km/h 73% 0.00in /  0mm 0 W/m2
20:59 34.1 °F /  1.2 °C 26.3 °F /  -3.2 °C 29.94in /  1013.8hPa WNW 2.2mph /  3.5km/h 10mph /  16.1km/h 73% 0.00in /  0mm 0 W/m2
21:04 34.1 °F /  1.2 °C 26.4 °F /  -3.1 °C 29.94in /  1013.8hPa WNW 2mph /  3.2km/h 10mph /  16.1km/h 73% 0.00in /  0mm 0 W/m2
21:09 34.1 °F /  1.2 °C 26.2 °F /  -3.2 °C 29.94in /  1013.8hPa NW 0.9mph /  1.4km/h 9mph /  14.5km/h 72.5% 0.00in /  0mm 0 W/m2
21:14 34.1 °F /  1.2 °C 26.2 °F /  -3.2 °C 29.95in /  1014.1hPa WNW 4.1mph /  6.6km/h 15mph /  24.1km/h 72.6% 0.00in /  0mm 0 W/m2
21:19 34.1 °F /  1.2 °C 26 °F /  -3.3 °C 29.95in /  1014.1hPa WNW 7.8mph /  12.6km/h 16mph /  25.7km/h 71.9% 0.00in /  0mm 0 W/m2
21:24 34.2 °F /  1.2 °C 25.8 °F /  -3.4 °C 29.96in /  1014.4hPa WNW 3.5mph /  5.6km/h 16mph /  25.7km/h 71% 0.00in /  0mm 0 W/m2
21:29 34.2 °F /  1.2 °C 25.8 °F /  -3.4 °C 29.96in /  1014.4hPa WNW 1.9mph /  3.1km/h 16mph /  25.7km/h 71% 0.00in /  0mm 0 W/m2
21:34 34.2 °F /  1.2 °C 25.8 °F /  -3.4 °C 29.96in /  1014.4hPa NW 1.5mph /  2.4km/h 16mph /  25.7km/h 71% 0.00in /  0mm 0 W/m2
21:39 34.1 °F /  1.2 °C 25.7 °F /  -3.5 °C 29.96in /  1014.4hPa WNW 3.4mph /  5.5km/h 10mph /  16.1km/h 71% 0.00in /  0mm 0 W/m2
21:44 34.1 °F /  1.2 °C 25.8 °F /  -3.4 °C 29.95in /  1014.1hPa WNW 5.2mph /  8.4km/h 14mph /  22.5km/h 71.2% 0.00in /  0mm 0 W/m2
21:49 34.1 °F /  1.2 °C 25.7 °F /  -3.5 °C 29.95in /  1014.1hPa WNW 4mph /  6.4km/h 14mph /  22.5km/h 71% 0.00in /  0mm 0 W/m2
21:54 34.2 °F /  1.2 °C 25.8 °F /  -3.4 °C 29.95in /  1014.1hPa WNW 4.5mph /  7.2km/h 14mph /  22.5km/h 71% 0.00in /  0mm 0 W/m2
21:59 34.3 °F /  1.3 °C 25.9 °F /  -3.4 °C 29.95in /  1014.1hPa WNW 3.7mph /  6km/h 14mph /  22.5km/h 71% 0.00in /  0mm 0 W/m2
22:04 34.3 °F /  1.3 °C 26.1 °F /  -3.3 °C 29.95in /  1014.1hPa NW 2mph /  3.2km/h 14mph /  22.5km/h 71.7% 0.00in /  0mm 0 W/m2
22:09 34.3 °F /  1.3 °C 25.9 °F /  -3.4 °C 29.95in /  1014.1hPa WNW 4.2mph /  6.8km/h 12mph /  19.3km/h 71% 0.00in /  0mm 0 W/m2
22:14 34.3 °F /  1.3 °C 25.9 °F /  -3.4 °C 29.96in /  1014.4hPa NW 1.2mph /  1.9km/h 12mph /  19.3km/h 71% 0.00in /  0mm 0 W/m2
22:19 34.3 °F /  1.3 °C 25.9 °F /  -3.4 °C 29.96in /  1014.4hPa WNW 1.7mph /  2.7km/h 12mph /  19.3km/h 71% 0.00in /  0mm 0 W/m2
22:24 34.2 °F /  1.2 °C 26 °F /  -3.3 °C 29.96in /  1014.4hPa WNW 0.9mph /  1.4km/h 12mph /  19.3km/h 71.6% 0.00in /  0mm 0 W/m2
22:29 34.1 °F /  1.2 °C 26 °F /  -3.3 °C 29.96in /  1014.4hPa WNW 2.5mph /  4km/h 12mph /  19.3km/h 72% 0.00in /  0mm 0 W/m2
22:34 34 °F /  1.1 °C 25.9 °F /  -3.4 °C 29.96in /  1014.4hPa WNW 2.9mph /  4.7km/h 12mph /  19.3km/h 72% 0.00in /  0mm 0 W/m2
22:39 33.9 °F /  1.1 °C 25.8 °F /  -3.4 °C 29.95in /  1014.1hPa WNW 3.6mph /  5.8km/h 11mph /  17.7km/h 72% 0.00in /  0mm 0 W/m2
22:44 33.9 °F /  1.1 °C 25.9 °F /  -3.4 °C 29.95in /  1014.1hPa WNW 0.6mph /  1km/h 11mph /  17.7km/h 72% 0.00in /  0mm 0 W/m2
22:49 34 °F /  1.1 °C 25.9 °F /  -3.4 °C 29.95in /  1014.1hPa WNW 1mph /  1.6km/h 11mph /  17.7km/h 72% 0.00in /  0mm 0 W/m2
22:54 34.1 °F /  1.2 °C 26 °F /  -3.3 °C 29.95in /  1014.1hPa WNW 1.4mph /  2.3km/h 11mph /  17.7km/h 72% 0.00in /  0mm 0 W/m2
22:59 34.1 °F /  1.2 °C 25.8 °F /  -3.4 °C 29.96in /  1014.4hPa WNW 5.8mph /  9.3km/h 14mph /  22.5km/h 71.3% 0.00in /  0mm 0 W/m2
23:09 34.2 °F /  1.2 °C 25.1 °F /  -3.8 °C 29.96in /  1014.4hPa WNW 4.5mph /  7.2km/h 10mph /  16.1km/h 68.8% 0.00in /  0mm 0 W/m2
23:14 34.3 °F /  1.3 °C 24.8 °F /  -4 °C 29.96in /  1014.4hPa WNW 5mph /  8km/h 11mph /  17.7km/h 68% 0.00in /  0mm 0 W/m2
23:19 34.3 °F /  1.3 °C 24.8 °F /  -4 °C 29.96in /  1014.4hPa WNW 4.7mph /  7.6km/h 16mph /  25.7km/h 67.8% 0.00in /  0mm 0 W/m2
23:24 34.2 °F /  1.2 °C 24.4 °F /  -4.2 °C 29.97in /  1014.8hPa WNW 5.3mph /  8.5km/h 16mph /  25.7km/h 66.9% 0.00in /  0mm 0 W/m2
23:29 34.2 °F /  1.2 °C 23.9 °F /  -4.5 °C 29.97in /  1014.8hPa WNW 5.5mph /  8.9km/h 16mph /  25.7km/h 65.7% 0.00in /  0mm 0 W/m2
23:34 34.1 °F /  1.2 °C 23.6 °F /  -4.7 °C 29.97in /  1014.8hPa WNW 4.5mph /  7.2km/h 16mph /  25.7km/h 65% 0.00in /  0mm 0 W/m2
23:39 34.1 °F /  1.2 °C 23.6 °F /  -4.7 °C 29.97in /  1014.8hPa West 2.1mph /  3.4km/h 12mph /  19.3km/h 65% 0.00in /  0mm 0 W/m2
23:44 33.9 °F /  1.1 °C 23.3 °F /  -4.8 °C 29.97in /  1014.8hPa WNW 2.9mph /  4.7km/h 12mph /  19.3km/h 64.7% 0.00in /  0mm 0 W/m2
23:49 33.8 °F /  1 °C 23 °F /  -5 °C 29.97in /  1014.8hPa NW 1.5mph /  2.4km/h 12mph /  19.3km/h 64% 0.00in /  0mm 0 W/m2
23:54 33.7 °F /  0.9 °C 22.8 °F /  -5.1 °C 29.97in /  1014.8hPa NW 1.3mph /  2.1km/h 12mph /  19.3km/h 64% 0.00in /  0mm 0 W/m2
23:59 33.5 °F /  0.8 °C 22.7 °F /  -5.2 °C 29.97in /  1014.8hPa WNW 1.1mph /  1.8km/h 12mph /  19.3km/h 64% 0.00in /  0mm 0 W/m2
Hartford County Weather
Compliments of Weather Underground - 4 mb